sensor_id;sensor_type;location;lat;lon;timestamp;P1;durP1;ratioP1;P2;durP2;ratioP2
2756;SDS011;1386;50.862;6.494;2023-02-15T00:01:43;24.67;;;17.30;;
2756;SDS011;1386;50.862;6.494;2023-02-15T00:04:12;37.30;;;18.57;;
2756;SDS011;1386;50.862;6.494;2023-02-15T00:06:40;27.47;;;17.43;;
2756;SDS011;1386;50.862;6.494;2023-02-15T00:09:07;31.77;;;18.63;;
2756;SDS011;1386;50.862;6.494;2023-02-15T00:11:34;27.47;;;18.07;;
2756;SDS011;1386;50.862;6.494;2023-02-15T00:14:15;25.17;;;17.37;;
2756;SDS011;1386;50.862;6.494;2023-02-15T00:16:44;27.17;;;17.37;;
2756;SDS011;1386;50.862;6.494;2023-02-15T00:19:12;28.00;;;18.20;;
2756;SDS011;1386;50.862;6.494;2023-02-15T00:21:40;29.47;;;18.40;;
2756;SDS011;1386;50.862;6.494;2023-02-15T00:24:11;29.30;;;19.50;;
2756;SDS011;1386;50.862;6.494;2023-02-15T00:26:41;27.93;;;17.37;;
2756;SDS011;1386;50.862;6.494;2023-02-15T00:29:09;28.53;;;18.20;;
2756;SDS011;1386;50.862;6.494;2023-02-15T00:31:37;29.27;;;19.77;;
2756;SDS011;1386;50.862;6.494;2023-02-15T00:34:06;34.00;;;20.00;;
2756;SDS011;1386;50.862;6.494;2023-02-15T00:36:36;31.27;;;19.27;;
2756;SDS011;1386;50.862;6.494;2023-02-15T00:39:04;31.30;;;20.00;;
2756;SDS011;1386;50.862;6.494;2023-02-15T00:41:31;36.40;;;18.57;;
2756;SDS011;1386;50.862;6.494;2023-02-15T00:43:58;30.10;;;19.70;;
2756;SDS011;1386;50.862;6.494;2023-02-15T00:46:24;28.27;;;19.43;;
2756;SDS011;1386;50.862;6.494;2023-02-15T00:48:51;30.30;;;19.07;;
2756;SDS011;1386;50.862;6.494;2023-02-15T00:51:19;26.37;;;19.70;;
2756;SDS011;1386;50.862;6.494;2023-02-15T00:53:46;32.23;;;19.67;;
2756;SDS011;1386;50.862;6.494;2023-02-15T00:56:13;29.20;;;19.23;;
2756;SDS011;1386;50.862;6.494;2023-02-15T00:58:40;28.53;;;19.60;;
2756;SDS011;1386;50.862;6.494;2023-02-15T01:01:08;37.00;;;19.97;;
2756;SDS011;1386;50.862;6.494;2023-02-15T01:03:36;39.10;;;20.10;;
2756;SDS011;1386;50.862;6.494;2023-02-15T01:06:04;34.93;;;18.60;;
2756;SDS011;1386;50.862;6.494;2023-02-15T01:08:33;36.23;;;21.33;;
2756;SDS011;1386;50.862;6.494;2023-02-15T01:11:02;45.38;;;21.27;;
2756;SDS011;1386;50.862;6.494;2023-02-15T01:13:30;37.67;;;21.88;;
2756;SDS011;1386;50.862;6.494;2023-02-15T01:15:57;38.40;;;20.98;;
2756;SDS011;1386;50.862;6.494;2023-02-15T01:18:24;40.17;;;22.02;;
2756;SDS011;1386;50.862;6.494;2023-02-15T01:20:51;37.40;;;20.90;;
2756;SDS011;1386;50.862;6.494;2023-02-15T01:23:17;42.20;;;21.13;;
2756;SDS011;1386;50.862;6.494;2023-02-15T01:25:48;37.13;;;21.35;;
2756;SDS011;1386;50.862;6.494;2023-02-15T01:28:15;44.97;;;21.52;;
2756;SDS011;1386;50.862;6.494;2023-02-15T01:30:42;38.78;;;20.42;;
2756;SDS011;1386;50.862;6.494;2023-02-15T01:33:09;35.72;;;19.48;;
2756;SDS011;1386;50.862;6.494;2023-02-15T01:35:42;31.33;;;20.97;;
2756;SDS011;1386;50.862;6.494;2023-02-15T01:38:10;34.38;;;20.25;;
2756;SDS011;1386;50.862;6.494;2023-02-15T01:40:37;40.13;;;20.53;;
2756;SDS011;1386;50.862;6.494;2023-02-15T01:43:09;35.80;;;20.47;;
2756;SDS011;1386;50.862;6.494;2023-02-15T01:45:37;32.70;;;19.73;;
2756;SDS011;1386;50.862;6.494;2023-02-15T01:48:05;36.42;;;19.80;;
2756;SDS011;1386;50.862;6.494;2023-02-15T01:50:38;45.55;;;20.73;;
2756;SDS011;1386;50.862;6.494;2023-02-15T01:53:09;42.65;;;21.25;;
2756;SDS011;1386;50.862;6.494;2023-02-15T01:55:42;42.33;;;20.80;;
2756;SDS011;1386;50.862;6.494;2023-02-15T01:58:16;38.60;;;22.50;;
2756;SDS011;1386;50.862;6.494;2023-02-15T02:00:43;39.67;;;21.00;;
2756;SDS011;1386;50.862;6.494;2023-02-15T02:03:11;39.45;;;19.40;;
2756;SDS011;1386;50.862;6.494;2023-02-15T02:05:38;38.95;;;20.25;;
2756;SDS011;1386;50.862;6.494;2023-02-15T02:08:06;34.58;;;21.98;;
2756;SDS011;1386;50.862;6.494;2023-02-15T02:10:34;34.75;;;21.58;;
2756;SDS011;1386;50.862;6.494;2023-02-15T02:13:02;35.40;;;20.65;;
2756;SDS011;1386;50.862;6.494;2023-02-15T02:15:33;29.80;;;20.58;;
2756;SDS011;1386;50.862;6.494;2023-02-15T02:18:25;39.22;;;22.88;;
2756;SDS011;1386;50.862;6.494;2023-02-15T02:21:20;33.50;;;21.00;;
2756;SDS011;1386;50.862;6.494;2023-02-15T02:24:23;34.53;;;20.00;;
2756;SDS011;1386;50.862;6.494;2023-02-15T02:27:26;29.02;;;19.77;;
2756;SDS011;1386;50.862;6.494;2023-02-15T02:35:47;34.77;;;20.37;;
2756;SDS011;1386;50.862;6.494;2023-02-15T02:38:23;31.77;;;21.42;;
2756;SDS011;1386;50.862;6.494;2023-02-15T02:40:56;34.22;;;21.35;;
2756;SDS011;1386;50.862;6.494;2023-02-15T02:43:33;36.08;;;22.05;;
2756;SDS011;1386;50.862;6.494;2023-02-15T02:46:10;33.13;;;21.55;;
2756;SDS011;1386;50.862;6.494;2023-02-15T02:48:46;34.25;;;21.90;;
2756;SDS011;1386;50.862;6.494;2023-02-15T02:51:15;34.72;;;20.73;;
2756;SDS011;1386;50.862;6.494;2023-02-15T02:53:46;31.77;;;21.08;;
2756;SDS011;1386;50.862;6.494;2023-02-15T02:56:18;30.83;;;20.45;;
2756;SDS011;1386;50.862;6.494;2023-02-15T02:58:50;32.47;;;20.45;;
2756;SDS011;1386;50.862;6.494;2023-02-15T03:01:23;34.35;;;20.38;;
2756;SDS011;1386;50.862;6.494;2023-02-15T03:03:55;32.63;;;20.60;;
2756;SDS011;1386;50.862;6.494;2023-02-15T03:06:28;32.75;;;21.08;;
2756;SDS011;1386;50.862;6.494;2023-02-15T03:09:00;31.33;;;20.92;;
2756;SDS011;1386;50.862;6.494;2023-02-15T03:11:33;31.73;;;19.85;;
2756;SDS011;1386;50.862;6.494;2023-02-15T03:14:00;33.95;;;21.17;;
2756;SDS011;1386;50.862;6.494;2023-02-15T03:16:26;28.67;;;20.05;;
2756;SDS011;1386;50.862;6.494;2023-02-15T03:18:57;28.70;;;19.45;;
2756;SDS011;1386;50.862;6.494;2023-02-15T03:21:31;30.95;;;19.38;;
2756;SDS011;1386;50.862;6.494;2023-02-15T03:24:02;30.40;;;20.48;;
2756;SDS011;1386;50.862;6.494;2023-02-15T03:26:33;32.67;;;20.10;;
2756;SDS011;1386;50.862;6.494;2023-02-15T03:29:02;26.45;;;19.88;;
2756;SDS011;1386;50.862;6.494;2023-02-15T03:31:32;36.28;;;21.00;;
2756;SDS011;1386;50.862;6.494;2023-02-15T03:34:05;30.05;;;20.25;;
2756;SDS011;1386;50.862;6.494;2023-02-15T03:36:36;33.00;;;21.00;;
2756;SDS011;1386;50.862;6.494;2023-02-15T03:39:11;32.20;;;21.75;;
2756;SDS011;1386;50.862;6.494;2023-02-15T03:41:45;32.47;;;19.92;;
2756;SDS011;1386;50.862;6.494;2023-02-15T03:44:18;30.88;;;20.70;;
2756;SDS011;1386;50.862;6.494;2023-02-15T03:46:51;31.77;;;19.17;;
2756;SDS011;1386;50.862;6.494;2023-02-15T03:49:24;29.17;;;19.80;;
2756;SDS011;1386;50.862;6.494;2023-02-15T03:51:54;27.88;;;19.50;;
2756;SDS011;1386;50.862;6.494;2023-02-15T03:54:24;33.42;;;20.15;;
2756;SDS011;1386;50.862;6.494;2023-02-15T03:57:09;31.15;;;20.40;;
2756;SDS011;1386;50.862;6.494;2023-02-15T03:59:56;30.80;;;19.08;;
2756;SDS011;1386;50.862;6.494;2023-02-15T04:02:44;29.35;;;18.98;;
2756;SDS011;1386;50.862;6.494;2023-02-15T04:05:24;29.60;;;19.00;;
2756;SDS011;1386;50.862;6.494;2023-02-15T04:07:51;30.50;;;19.50;;
2756;SDS011;1386;50.862;6.494;2023-02-15T04:10:17;27.95;;;18.83;;
2756;SDS011;1386;50.862;6.494;2023-02-15T04:13:02;28.42;;;18.50;;
2756;SDS011;1386;50.862;6.494;2023-02-15T04:15:29;32.17;;;19.42;;
2756;SDS011;1386;50.862;6.494;2023-02-15T04:18:14;29.38;;;19.38;;
2756;SDS011;1386;50.862;6.494;2023-02-15T04:20:44;32.92;;;20.77;;
2756;SDS011;1386;50.862;6.494;2023-02-15T04:23:29;34.22;;;19.15;;
2756;SDS011;1386;50.862;6.494;2023-02-15T04:26:13;27.33;;;18.55;;
2756;SDS011;1386;50.862;6.494;2023-02-15T04:28:39;28.45;;;19.30;;
2756;SDS011;1386;50.862;6.494;2023-02-15T04:31:06;31.13;;;19.73;;
2756;SDS011;1386;50.862;6.494;2023-02-15T04:33:33;29.60;;;19.83;;
2756;SDS011;1386;50.862;6.494;2023-02-15T04:36:02;32.15;;;21.50;;
2756;SDS011;1386;50.862;6.494;2023-02-15T04:38:29;28.63;;;20.02;;
2756;SDS011;1386;50.862;6.494;2023-02-15T04:40:56;31.10;;;18.98;;
2756;SDS011;1386;50.862;6.494;2023-02-15T04:43:23;29.15;;;19.35;;
2756;SDS011;1386;50.862;6.494;2023-02-15T04:45:49;31.45;;;19.23;;
2756;SDS011;1386;50.862;6.494;2023-02-15T04:48:17;32.22;;;20.10;;
2756;SDS011;1386;50.862;6.494;2023-02-15T04:50:44;34.00;;;20.75;;
2756;SDS011;1386;50.862;6.494;2023-02-15T04:53:12;25.63;;;18.00;;
2756;SDS011;1386;50.862;6.494;2023-02-15T04:55:41;34.17;;;20.35;;
2756;SDS011;1386;50.862;6.494;2023-02-15T04:58:08;29.83;;;20.02;;
2756;SDS011;1386;50.862;6.494;2023-02-15T05:00:35;32.17;;;19.90;;
2756;SDS011;1386;50.862;6.494;2023-02-15T05:03:02;31.40;;;20.33;;
2756;SDS011;1386;50.862;6.494;2023-02-15T05:05:28;28.00;;;19.25;;
2756;SDS011;1386;50.862;6.494;2023-02-15T05:07:55;30.77;;;19.67;;
2756;SDS011;1386;50.862;6.494;2023-02-15T05:10:23;28.23;;;18.10;;
2756;SDS011;1386;50.862;6.494;2023-02-15T05:12:50;29.95;;;18.65;;
2756;SDS011;1386;50.862;6.494;2023-02-15T05:15:17;30.63;;;19.02;;
2756;SDS011;1386;50.862;6.494;2023-02-15T05:17:44;29.92;;;19.45;;
2756;SDS011;1386;50.862;6.494;2023-02-15T05:20:11;27.92;;;18.65;;
2756;SDS011;1386;50.862;6.494;2023-02-15T05:22:38;27.83;;;18.40;;
2756;SDS011;1386;50.862;6.494;2023-02-15T05:25:05;27.38;;;19.02;;
2756;SDS011;1386;50.862;6.494;2023-02-15T05:27:51;27.55;;;17.90;;
2756;SDS011;1386;50.862;6.494;2023-02-15T05:30:36;31.55;;;18.90;;
2756;SDS011;1386;50.862;6.494;2023-02-15T05:33:04;29.80;;;18.02;;
2756;SDS011;1386;50.862;6.494;2023-02-15T05:35:31;26.30;;;18.90;;
2756;SDS011;1386;50.862;6.494;2023-02-15T05:37:58;30.63;;;19.08;;
2756;SDS011;1386;50.862;6.494;2023-02-15T05:40:25;32.28;;;18.15;;
2756;SDS011;1386;50.862;6.494;2023-02-15T05:42:53;31.30;;;20.80;;
2756;SDS011;1386;50.862;6.494;2023-02-15T05:45:20;25.80;;;18.30;;
2756;SDS011;1386;50.862;6.494;2023-02-15T05:47:47;22.52;;;16.73;;
2756;SDS011;1386;50.862;6.494;2023-02-15T05:50:14;30.80;;;19.65;;
2756;SDS011;1386;50.862;6.494;2023-02-15T05:52:41;26.65;;;19.77;;
2756;SDS011;1386;50.862;6.494;2023-02-15T05:55:08;29.25;;;19.38;;
2756;SDS011;1386;50.862;6.494;2023-02-15T05:57:35;27.15;;;17.65;;
2756;SDS011;1386;50.862;6.494;2023-02-15T06:00:03;27.20;;;18.00;;
2756;SDS011;1386;50.862;6.494;2023-02-15T06:02:32;33.67;;;18.00;;
2756;SDS011;1386;50.862;6.494;2023-02-15T06:04:59;27.17;;;18.27;;
2756;SDS011;1386;50.862;6.494;2023-02-15T06:07:26;34.72;;;19.70;;
2756;SDS011;1386;50.862;6.494;2023-02-15T06:09:53;26.40;;;17.20;;
2756;SDS011;1386;50.862;6.494;2023-02-15T06:12:20;25.75;;;18.25;;
2756;SDS011;1386;50.862;6.494;2023-02-15T06:14:46;32.08;;;19.25;;
2756;SDS011;1386;50.862;6.494;2023-02-15T06:17:15;27.15;;;18.80;;
2756;SDS011;1386;50.862;6.494;2023-02-15T06:19:42;27.05;;;16.67;;
2756;SDS011;1386;50.862;6.494;2023-02-15T06:22:09;29.77;;;18.95;;
2756;SDS011;1386;50.862;6.494;2023-02-15T06:24:38;33.60;;;20.70;;
2756;SDS011;1386;50.862;6.494;2023-02-15T06:27:07;38.28;;;19.20;;
2756;SDS011;1386;50.862;6.494;2023-02-15T06:29:34;30.15;;;19.13;;
2756;SDS011;1386;50.862;6.494;2023-02-15T06:32:01;28.60;;;16.70;;
2756;SDS011;1386;50.862;6.494;2023-02-15T06:34:29;40.53;;;21.58;;
2756;SDS011;1386;50.862;6.494;2023-02-15T06:36:56;31.33;;;18.95;;
2756;SDS011;1386;50.862;6.494;2023-02-15T06:39:23;34.35;;;18.60;;
2756;SDS011;1386;50.862;6.494;2023-02-15T06:41:49;26.40;;;17.08;;
2756;SDS011;1386;50.862;6.494;2023-02-15T06:44:16;32.75;;;18.58;;
2756;SDS011;1386;50.862;6.494;2023-02-15T06:46:43;28.40;;;18.55;;
2756;SDS011;1386;50.862;6.494;2023-02-15T06:49:10;22.98;;;16.63;;
2756;SDS011;1386;50.862;6.494;2023-02-15T06:51:38;27.25;;;19.13;;
2756;SDS011;1386;50.862;6.494;2023-02-15T06:54:05;29.98;;;19.05;;
2756;SDS011;1386;50.862;6.494;2023-02-15T06:56:32;27.50;;;17.77;;
2756;SDS011;1386;50.862;6.494;2023-02-15T06:58:59;25.88;;;16.05;;
2756;SDS011;1386;50.862;6.494;2023-02-15T07:01:25;28.42;;;17.58;;
2756;SDS011;1386;50.862;6.494;2023-02-15T07:03:52;28.20;;;18.17;;
2756;SDS011;1386;50.862;6.494;2023-02-15T07:06:19;26.05;;;17.95;;
2756;SDS011;1386;50.862;6.494;2023-02-15T07:08:47;29.40;;;18.77;;
2756;SDS011;1386;50.862;6.494;2023-02-15T07:11:14;28.35;;;17.92;;
2756;SDS011;1386;50.862;6.494;2023-02-15T07:13:58;26.33;;;18.23;;
2756;SDS011;1386;50.862;6.494;2023-02-15T07:16:25;22.80;;;16.73;;
2756;SDS011;1386;50.862;6.494;2023-02-15T07:18:52;27.90;;;16.70;;
2756;SDS011;1386;50.862;6.494;2023-02-15T07:21:18;28.85;;;18.17;;
2756;SDS011;1386;50.862;6.494;2023-02-15T07:23:45;29.10;;;18.13;;
2756;SDS011;1386;50.862;6.494;2023-02-15T07:26:14;29.20;;;19.83;;
2756;SDS011;1386;50.862;6.494;2023-02-15T07:28:41;26.92;;;18.38;;
2756;SDS011;1386;50.862;6.494;2023-02-15T07:31:08;26.02;;;17.98;;
2756;SDS011;1386;50.862;6.494;2023-02-15T07:33:35;28.92;;;19.77;;
2756;SDS011;1386;50.862;6.494;2023-02-15T07:36:03;31.80;;;19.63;;
2756;SDS011;1386;50.862;6.494;2023-02-15T07:51:50;25.02;;;17.00;;
2756;SDS011;1386;50.862;6.494;2023-02-15T07:54:17;25.98;;;18.02;;
2756;SDS011;1386;50.862;6.494;2023-02-15T07:56:43;26.48;;;16.80;;
2756;SDS011;1386;50.862;6.494;2023-02-15T07:59:20;28.05;;;16.88;;
2756;SDS011;1386;50.862;6.494;2023-02-15T08:02:03;26.42;;;16.88;;
2756;SDS011;1386;50.862;6.494;2023-02-15T08:04:37;26.10;;;17.33;;
2756;SDS011;1386;50.862;6.494;2023-02-15T08:07:06;28.88;;;18.05;;
2756;SDS011;1386;50.862;6.494;2023-02-15T08:09:32;28.25;;;17.50;;
2756;SDS011;1386;50.862;6.494;2023-02-15T08:11:59;26.35;;;17.02;;
2756;SDS011;1386;50.862;6.494;2023-02-15T08:14:27;32.10;;;18.60;;
2756;SDS011;1386;50.862;6.494;2023-02-15T08:16:54;29.42;;;18.63;;
2756;SDS011;1386;50.862;6.494;2023-02-15T08:19:24;26.08;;;18.63;;
2756;SDS011;1386;50.862;6.494;2023-02-15T08:21:53;27.83;;;18.33;;
2756;SDS011;1386;50.862;6.494;2023-02-15T08:24:24;26.23;;;17.83;;
2756;SDS011;1386;50.862;6.494;2023-02-15T08:26:51;20.42;;;15.95;;
2756;SDS011;1386;50.862;6.494;2023-02-15T08:29:20;28.30;;;17.90;;
2756;SDS011;1386;50.862;6.494;2023-02-15T08:31:48;25.80;;;16.95;;
2756;SDS011;1386;50.862;6.494;2023-02-15T08:34:16;27.17;;;17.05;;
2756;SDS011;1386;50.862;6.494;2023-02-15T08:36:44;25.35;;;19.25;;
2756;SDS011;1386;50.862;6.494;2023-02-15T08:39:12;27.37;;;17.57;;
2756;SDS011;1386;50.862;6.494;2023-02-15T08:41:42;26.10;;;16.67;;
2756;SDS011;1386;50.862;6.494;2023-02-15T08:44:10;28.10;;;16.97;;
2756;SDS011;1386;50.862;6.494;2023-02-15T08:46:38;28.10;;;17.50;;
2756;SDS011;1386;50.862;6.494;2023-02-15T08:49:07;26.40;;;17.23;;
2756;SDS011;1386;50.862;6.494;2023-02-15T08:51:35;26.30;;;16.60;;
2756;SDS011;1386;50.862;6.494;2023-02-15T08:54:04;24.50;;;16.93;;
2756;SDS011;1386;50.862;6.494;2023-02-15T08:56:33;25.67;;;16.77;;
2756;SDS011;1386;50.862;6.494;2023-02-15T08:59:03;27.80;;;16.97;;
2756;SDS011;1386;50.862;6.494;2023-02-15T09:01:31;25.07;;;16.20;;
2756;SDS011;1386;50.862;6.494;2023-02-15T09:04:00;29.43;;;16.57;;
2756;SDS011;1386;50.862;6.494;2023-02-15T09:06:29;24.80;;;16.50;;
2756;SDS011;1386;50.862;6.494;2023-02-15T09:08:56;26.50;;;17.90;;
2756;SDS011;1386;50.862;6.494;2023-02-15T09:11:23;24.53;;;16.07;;
2756;SDS011;1386;50.862;6.494;2023-02-15T09:13:53;26.10;;;16.97;;
2756;SDS011;1386;50.862;6.494;2023-02-15T09:16:25;24.20;;;16.03;;
2756;SDS011;1386;50.862;6.494;2023-02-15T09:18:53;23.87;;;14.73;;
2756;SDS011;1386;50.862;6.494;2023-02-15T09:21:23;23.20;;;15.17;;
2756;SDS011;1386;50.862;6.494;2023-02-15T09:23:52;19.20;;;12.33;;
2756;SDS011;1386;50.862;6.494;2023-02-15T09:26:23;21.90;;;13.77;;
2756;SDS011;1386;50.862;6.494;2023-02-15T09:28:51;26.23;;;16.43;;
2756;SDS011;1386;50.862;6.494;2023-02-15T09:31:27;20.83;;;13.83;;
2756;SDS011;1386;50.862;6.494;2023-02-15T09:33:55;20.40;;;14.03;;
2756;SDS011;1386;50.862;6.494;2023-02-15T09:36:24;32.03;;;15.70;;
2756;SDS011;1386;50.862;6.494;2023-02-15T09:39:03;20.30;;;13.00;;
2756;SDS011;1386;50.862;6.494;2023-02-15T09:44:33;16.60;;;11.83;;
2756;SDS011;1386;50.862;6.494;2023-02-15T09:47:20;16.73;;;11.57;;
2756;SDS011;1386;50.862;6.494;2023-02-15T09:50:06;17.30;;;12.70;;
2756;SDS011;1386;50.862;6.494;2023-02-15T09:52:42;18.17;;;11.87;;
2756;SDS011;1386;50.862;6.494;2023-02-15T09:55:24;21.83;;;14.23;;
2756;SDS011;1386;50.862;6.494;2023-02-15T09:58:04;21.83;;;13.60;;
2756;SDS011;1386;50.862;6.494;2023-02-15T10:00:43;19.60;;;11.87;;
2756;SDS011;1386;50.862;6.494;2023-02-15T10:03:22;14.80;;;11.23;;
2756;SDS011;1386;50.862;6.494;2023-02-15T10:06:04;17.60;;;11.73;;
2756;SDS011;1386;50.862;6.494;2023-02-15T10:09:03;17.50;;;11.57;;
2756;SDS011;1386;50.862;6.494;2023-02-15T10:11:59;16.27;;;11.00;;
2756;SDS011;1386;50.862;6.494;2023-02-15T10:14:38;14.73;;;10.67;;
2756;SDS011;1386;50.862;6.494;2023-02-15T10:27:33;14.97;;;11.40;;
2756;SDS011;1386;50.862;6.494;2023-02-15T10:30:11;22.20;;;14.30;;
2756;SDS011;1386;50.862;6.494;2023-02-15T10:32:39;18.70;;;12.43;;
2756;SDS011;1386;50.862;6.494;2023-02-15T10:35:14;19.13;;;10.13;;
2756;SDS011;1386;50.862;6.494;2023-02-15T10:40:53;15.73;;;10.87;;
2756;SDS011;1386;50.862;6.494;2023-02-15T10:43:35;14.33;;;10.97;;
2756;SDS011;1386;50.862;6.494;2023-02-15T10:46:15;16.07;;;11.70;;
2756;SDS011;1386;50.862;6.494;2023-02-15T10:48:55;13.77;;;11.50;;
2756;SDS011;1386;50.862;6.494;2023-02-15T10:51:39;13.27;;;10.50;;
2756;SDS011;1386;50.862;6.494;2023-02-15T10:54:18;15.90;;;10.90;;
2756;SDS011;1386;50.862;6.494;2023-02-15T10:56:59;17.73;;;10.93;;
2756;SDS011;1386;50.862;6.494;2023-02-15T10:59:36;15.57;;;10.90;;
2756;SDS011;1386;50.862;6.494;2023-02-15T11:02:11;17.23;;;11.80;;
2756;SDS011;1386;50.862;6.494;2023-02-15T11:04:49;16.07;;;10.07;;
2756;SDS011;1386;50.862;6.494;2023-02-15T11:07:29;16.70;;;10.90;;
2756;SDS011;1386;50.862;6.494;2023-02-15T11:10:05;14.43;;;10.33;;
2756;SDS011;1386;50.862;6.494;2023-02-15T11:12:44;14.60;;;9.80;;
2756;SDS011;1386;50.862;6.494;2023-02-15T11:15:15;17.03;;;11.13;;
2756;SDS011;1386;50.862;6.494;2023-02-15T11:17:46;14.40;;;10.57;;
2756;SDS011;1386;50.862;6.494;2023-02-15T11:23:08;17.80;;;11.40;;
2756;SDS011;1386;50.862;6.494;2023-02-15T11:25:41;18.63;;;11.90;;
2756;SDS011;1386;50.862;6.494;2023-02-15T11:28:12;17.33;;;11.30;;
2756;SDS011;1386;50.862;6.494;2023-02-15T11:30:47;14.60;;;10.90;;
2756;SDS011;1386;50.862;6.494;2023-02-15T11:33:17;14.83;;;11.10;;
2756;SDS011;1386;50.862;6.494;2023-02-15T11:35:48;19.43;;;13.00;;
2756;SDS011;1386;50.862;6.494;2023-02-15T11:38:20;16.67;;;12.37;;
2756;SDS011;1386;50.862;6.494;2023-02-15T11:40:51;17.77;;;11.23;;
2756;SDS011;1386;50.862;6.494;2023-02-15T11:43:21;16.63;;;11.73;;
2756;SDS011;1386;50.862;6.494;2023-02-15T11:45:56;16.60;;;10.83;;
2756;SDS011;1386;50.862;6.494;2023-02-15T11:48:23;15.80;;;11.63;;
2756;SDS011;1386;50.862;6.494;2023-02-15T11:50:50;15.70;;;11.73;;
2756;SDS011;1386;50.862;6.494;2023-02-15T11:53:17;17.80;;;11.03;;
2756;SDS011;1386;50.862;6.494;2023-02-15T11:56:25;13.97;;;10.73;;
2756;SDS011;1386;50.862;6.494;2023-02-15T11:59:10;13.30;;;11.00;;
2756;SDS011;1386;50.862;6.494;2023-02-15T12:01:45;16.60;;;11.70;;
2756;SDS011;1386;50.862;6.494;2023-02-15T12:04:16;14.53;;;11.50;;
2756;SDS011;1386;50.862;6.494;2023-02-15T12:06:49;15.07;;;11.60;;
2756;SDS011;1386;50.862;6.494;2023-02-15T12:09:25;16.03;;;12.43;;
2756;SDS011;1386;50.862;6.494;2023-02-15T12:14:48;17.20;;;12.37;;
2756;SDS011;1386;50.862;6.494;2023-02-15T12:17:19;17.97;;;13.30;;
2756;SDS011;1386;50.862;6.494;2023-02-15T12:19:48;16.83;;;11.47;;
2756;SDS011;1386;50.862;6.494;2023-02-15T12:22:19;17.30;;;11.43;;
2756;SDS011;1386;50.862;6.494;2023-02-15T12:24:52;16.00;;;11.93;;
2756;SDS011;1386;50.862;6.494;2023-02-15T12:30:29;17.10;;;12.33;;
2756;SDS011;1386;50.862;6.494;2023-02-15T12:33:05;18.00;;;12.60;;
2756;SDS011;1386;50.862;6.494;2023-02-15T12:35:41;16.93;;;12.07;;
2756;SDS011;1386;50.862;6.494;2023-02-15T12:38:19;16.90;;;12.37;;
2756;SDS011;1386;50.862;6.494;2023-02-15T12:40:56;21.13;;;14.00;;
2756;SDS011;1386;50.862;6.494;2023-02-15T12:43:29;22.03;;;13.00;;
2756;SDS011;1386;50.862;6.494;2023-02-15T12:46:13;15.80;;;12.63;;
2756;SDS011;1386;50.862;6.494;2023-02-15T12:48:50;16.77;;;12.83;;
2756;SDS011;1386;50.862;6.494;2023-02-15T12:51:42;18.47;;;11.93;;
2756;SDS011;1386;50.862;6.494;2023-02-15T12:57:21;25.90;;;12.80;;
2756;SDS011;1386;50.862;6.494;2023-02-15T12:59:51;17.60;;;11.07;;
2756;SDS011;1386;50.862;6.494;2023-02-15T13:02:26;18.23;;;12.80;;
2756;SDS011;1386;50.862;6.494;2023-02-15T13:05:04;17.53;;;12.37;;
2756;SDS011;1386;50.862;6.494;2023-02-15T13:07:43;16.47;;;12.23;;
2756;SDS011;1386;50.862;6.494;2023-02-15T13:12:50;13.83;;;10.10;;
2756;SDS011;1386;50.862;6.494;2023-02-15T13:15:27;16.57;;;11.40;;
2756;SDS011;1386;50.862;6.494;2023-02-15T13:17:58;14.50;;;11.27;;
2756;SDS011;1386;50.862;6.494;2023-02-15T13:20:28;15.13;;;11.10;;
2756;SDS011;1386;50.862;6.494;2023-02-15T13:22:57;14.37;;;10.80;;
2756;SDS011;1386;50.862;6.494;2023-02-15T13:25:29;17.63;;;11.17;;
2756;SDS011;1386;50.862;6.494;2023-02-15T13:28:01;14.27;;;10.20;;
2756;SDS011;1386;50.862;6.494;2023-02-15T13:30:31;17.20;;;12.27;;
2756;SDS011;1386;50.862;6.494;2023-02-15T13:33:02;15.43;;;11.10;;
2756;SDS011;1386;50.862;6.494;2023-02-15T13:35:34;15.47;;;10.73;;
2756;SDS011;1386;50.862;6.494;2023-02-15T13:38:15;16.63;;;10.97;;
2756;SDS011;1386;50.862;6.494;2023-02-15T13:40:53;13.73;;;11.07;;
2756;SDS011;1386;50.862;6.494;2023-02-15T13:43:30;21.07;;;12.43;;
2756;SDS011;1386;50.862;6.494;2023-02-15T13:46:07;12.60;;;9.77;;
2756;SDS011;1386;50.862;6.494;2023-02-15T13:48:47;15.90;;;11.20;;
2756;SDS011;1386;50.862;6.494;2023-02-15T13:51:27;16.73;;;10.97;;
2756;SDS011;1386;50.862;6.494;2023-02-15T13:54:08;15.63;;;11.33;;
2756;SDS011;1386;50.862;6.494;2023-02-15T13:57:06;19.10;;;11.97;;
2756;SDS011;1386;50.862;6.494;2023-02-15T13:59:53;14.10;;;10.80;;
2756;SDS011;1386;50.862;6.494;2023-02-15T14:02:42;11.10;;;9.40;;
2756;SDS011;1386;50.862;6.494;2023-02-15T14:05:38;13.53;;;10.77;;
2756;SDS011;1386;50.862;6.494;2023-02-15T14:08:20;14.87;;;10.70;;
2756;SDS011;1386;50.862;6.494;2023-02-15T14:11:01;11.50;;;9.90;;
2756;SDS011;1386;50.862;6.494;2023-02-15T14:13:44;16.40;;;11.57;;
2756;SDS011;1386;50.862;6.494;2023-02-15T14:16:45;21.03;;;10.43;;
2756;SDS011;1386;50.862;6.494;2023-02-15T14:19:20;14.90;;;10.70;;
2756;SDS011;1386;50.862;6.494;2023-02-15T14:21:54;15.30;;;10.90;;
2756;SDS011;1386;50.862;6.494;2023-02-15T14:24:30;18.40;;;10.70;;
2756;SDS011;1386;50.862;6.494;2023-02-15T14:27:06;21.53;;;12.20;;
2756;SDS011;1386;50.862;6.494;2023-02-15T14:29:49;15.80;;;10.80;;
2756;SDS011;1386;50.862;6.494;2023-02-15T14:32:21;12.93;;;9.87;;
2756;SDS011;1386;50.862;6.494;2023-02-15T14:34:53;19.33;;;10.70;;
2756;SDS011;1386;50.862;6.494;2023-02-15T14:37:26;17.87;;;13.57;;
2756;SDS011;1386;50.862;6.494;2023-02-15T14:40:03;16.30;;;12.17;;
2756;SDS011;1386;50.862;6.494;2023-02-15T14:42:53;14.27;;;10.03;;
2756;SDS011;1386;50.862;6.494;2023-02-15T14:45:27;13.07;;;10.40;;
2756;SDS011;1386;50.862;6.494;2023-02-15T14:48:04;16.47;;;10.67;;
2756;SDS011;1386;50.862;6.494;2023-02-15T14:50:41;17.13;;;11.10;;
2756;SDS011;1386;50.862;6.494;2023-02-15T14:56:23;13.87;;;10.10;;
2756;SDS011;1386;50.862;6.494;2023-02-15T14:59:12;17.43;;;12.03;;
2756;SDS011;1386;50.862;6.494;2023-02-15T15:01:42;14.37;;;10.43;;
2756;SDS011;1386;50.862;6.494;2023-02-15T15:04:22;14.27;;;10.77;;
2756;SDS011;1386;50.862;6.494;2023-02-15T15:07:03;13.87;;;10.03;;
2756;SDS011;1386;50.862;6.494;2023-02-15T15:09:42;12.93;;;8.87;;
2756;SDS011;1386;50.862;6.494;2023-02-15T15:12:35;22.33;;;11.43;;
2756;SDS011;1386;50.862;6.494;2023-02-15T15:15:05;12.17;;;9.13;;
2756;SDS011;1386;50.862;6.494;2023-02-15T15:17:52;10.13;;;7.90;;
2756;SDS011;1386;50.862;6.494;2023-02-15T15:26:25;13.10;;;10.20;;
2756;SDS011;1386;50.862;6.494;2023-02-15T15:28:55;14.83;;;10.40;;
2756;SDS011;1386;50.862;6.494;2023-02-15T15:31:24;15.80;;;9.83;;
2756;SDS011;1386;50.862;6.494;2023-02-15T15:40:31;12.17;;;9.90;;
2756;SDS011;1386;50.862;6.494;2023-02-15T15:43:19;16.50;;;11.67;;
2756;SDS011;1386;50.862;6.494;2023-02-15T15:46:08;16.27;;;10.20;;
2756;SDS011;1386;50.862;6.494;2023-02-15T15:48:45;14.20;;;10.40;;
2756;SDS011;1386;50.862;6.494;2023-02-15T15:51:13;15.40;;;10.30;;
2756;SDS011;1386;50.862;6.494;2023-02-15T15:53:46;12.30;;;10.43;;
2756;SDS011;1386;50.862;6.494;2023-02-15T15:56:18;12.53;;;9.80;;
2756;SDS011;1386;50.862;6.494;2023-02-15T15:58:48;13.50;;;10.50;;
2756;SDS011;1386;50.862;6.494;2023-02-15T16:01:24;14.80;;;10.90;;
2756;SDS011;1386;50.862;6.494;2023-02-15T16:03:53;17.30;;;10.87;;
2756;SDS011;1386;50.862;6.494;2023-02-15T16:09:15;16.00;;;11.53;;
2756;SDS011;1386;50.862;6.494;2023-02-15T16:11:44;13.07;;;10.73;;
2756;SDS011;1386;50.862;6.494;2023-02-15T16:14:13;14.63;;;11.10;;
2756;SDS011;1386;50.862;6.494;2023-02-15T16:16:47;11.83;;;9.33;;
2756;SDS011;1386;50.862;6.494;2023-02-15T16:19:18;14.10;;;9.87;;
2756;SDS011;1386;50.862;6.494;2023-02-15T16:21:47;16.53;;;11.87;;
2756;SDS011;1386;50.862;6.494;2023-02-15T16:24:21;14.83;;;11.67;;
2756;SDS011;1386;50.862;6.494;2023-02-15T16:27:05;13.00;;;10.50;;
2756;SDS011;1386;50.862;6.494;2023-02-15T16:30:22;11.93;;;10.17;;